Погода Ашутастына неделю

Костанайская область, Казахстан

23 - 29 июля
  • 23июля
    Сегодня
    +16°
    +30°
    Практически безоблачно
    ВремяПогодаТемператураВлажностьДавлениеВетер, м/сВероятность осадков
    02:00Практически безоблачно+23°C51 %725 мм0.9 м/с2 %
    05:00Практически безоблачно+20°C64 %725 мм2.1 м/с2 %
    08:00Небольшая облачность+26°C48 %725 мм3.9 м/с1 %
    11:00Небольшая облачность+27°C53 %725 мм4.6 м/с29 %
    14:00Практически безоблачно+29°C42 %724 мм4.5 м/с4 %
    17:00Ясно и безоблачно+30°C37 %724 мм5.1 м/с1 %
    20:00Облачно с прояснениями+27°C43 %724 мм2.5 м/с2 %
    23:00Ясно и безоблачно+22°C52 %724 мм2.6 м/с2 %
  • 24июля
    Среда
    +16°
    +28°
    Практически безоблачно
    ВремяПогодаТемператураВлажностьДавлениеВетер, м/сВероятность осадков
    02:00Ясно и безоблачно+18°C83 %723 мм2.1 м/с2 %
    05:00Ясно и безоблачно+16°C91 %723 мм1.7 м/с2 %
    08:00Ясно и безоблачно+22°C71 %724 мм1.1 м/с2 %
    11:00Практически безоблачно+25°C52 %724 мм3.3 м/с2 %
    14:00Практически безоблачно+26°C44 %724 мм2.7 м/с21 %
    17:00Облачно с прояснениями+27°C37 %724 мм2.9 м/с3 %
    20:00Небольшая облачность+24°C45 %724 мм4.8 м/с2 %
    23:00Ясно и безоблачно+19°C58 %724 мм2.9 м/с2 %
  • 25июля
    Четверг
    +23°
    +33°
    Небольшая облачность
    ВремяПогодаТемператураВлажностьДавлениеВетер, м/сВероятность осадков
    02:00Ясно и безоблачно+17°C70 %723 мм3.2 м/с2 %
    05:00Облачно с прояснениями+16°C76 %723 мм3.9 м/с2 %
    08:00Облачно с прояснениями+20°C67 %723 мм4.8 м/с2 %
    11:00Облачно с прояснениями+26°C43 %723 мм5.3 м/с2 %
    14:00Небольшая облачность+29°C32 %722 мм3.6 м/с2 %
    17:00Практически безоблачно+32°C27 %721 мм3.7 м/с6 %
    20:00Пасмурно, сплошная облачность+28°C38 %720 мм4.1 м/с7 %
    23:00Пасмурно, сплошная облачность+26°C49 %719 мм5.5 м/с18 %
  • 26июля
    Пятница
    +15°
    +29°
    Ясно и безоблачно
    ВремяПогодаТемператураВлажностьДавлениеВетер, м/сВероятность осадков
    02:00Небольшая облачность+23°C54 %719 мм5.6 м/с39 %
    05:00Ясно и безоблачно+24°C49 %718 мм5.4 м/с37 %
    08:00Ясно и безоблачно+23°C56 %720 мм6.1 м/с29 %
    11:00Ясно и безоблачно+25°C41 %721 мм6.8 м/с26 %
    14:00Ясно и безоблачно+28°C27 %722 мм6.8 м/с23 %
    17:00Ясно и безоблачно+28°C23 %722 мм7.0 м/с2 %
    20:00Ясно и безоблачно+25°C30 %723 мм4.5 м/с2 %
    23:00Ясно и безоблачно+21°C39 %724 мм3.4 м/с2 %
  • 27июля
    Суббота
    +13°
    +27°
    Облачно с прояснениями
    ВремяПогодаТемператураВлажностьДавлениеВетер, м/сВероятность осадков
    02:00Ясно и безоблачно+18°C54 %724 мм0.9 м/с2 %
    05:00Ясно и безоблачно+15°C68 %725 мм2.2 м/с2 %
    08:00Ясно и безоблачно+21°C45 %726 мм3.4 м/с2 %
    11:00Ясно и безоблачно+24°C32 %726 мм5.7 м/с2 %
    14:00Облачно с прояснениями+26°C25 %726 мм5.9 м/с2 %
    17:00Облачно с прояснениями+26°C24 %726 мм6.3 м/с2 %
    20:00Облачно с прояснениями+24°C27 %726 мм4.1 м/с2 %
    23:00Практически безоблачно+20°C38 %726 мм1.8 м/с2 %
Мы используем cookies
Соглашаюсь